Time;durP1;ratioP1;P1;durP2;ratioP2;P2;SDS_P1;SDS_P2;PMS_P1;PMS_P2;Temp;Humidity;BMP_temperature;BMP_pressure;BME280_temperature;BME280_humidity;BME280_pressure;Samples;Min_cycle;Max_cycle;Signal;HPM_P1;HPM_P2
2021/11/06 00:00:15;;;;;;;17.25;11.60;;;10.50;99.90;;;;;;5085512;28;20047;-52
2021/11/06 00:02:41;;;;;;;22.17;16.02;;;10.20;99.90;;;;;;5059752;28;20476;-50
2021/11/06 00:05:07;;;;;;;20.30;14.85;;;10.20;99.90;;;;;;5065925;28;20051;-48
2021/11/06 00:07:33;;;;;;;24.17;16.85;;;10.10;99.90;;;;;;5072546;28;20048;-51
2021/11/06 00:10:00;;;;;;;26.63;18.83;;;9.90;99.90;;;;;;5074523;28;20039;-52
2021/11/06 00:12:26;;;;;;;26.60;18.63;;;10.10;99.90;;;;;;5078792;28;20050;-51
2021/11/06 00:14:52;;;;;;;23.85;18.55;;;10.30;99.90;;;;;;5073344;28;20036;-51
2021/11/06 00:17:18;;;;;;;24.30;16.20;;;10.30;99.90;;;;;;5074288;28;20049;-48
2021/11/06 00:19:44;;;;;;;25.00;18.33;;;10.30;99.90;;;;;;5081126;28;20052;-50
2021/11/06 00:22:09;;;;;;;21.75;17.10;;;10.40;99.90;;;;;;5053888;28;20033;-49
2021/11/06 00:24:35;;;;;;;23.30;17.25;;;10.40;99.90;;;;;;5053907;28;20480;-49
2021/11/06 00:27:01;;;;;;;24.85;17.48;;;10.50;99.90;;;;;;5053726;28;20033;-49
2021/11/06 00:29:27;;;;;;;23.25;15.43;;;10.50;99.90;;;;;;5052033;28;20147;-49
2021/11/06 00:31:53;;;;;;;23.67;16.88;;;10.50;99.90;;;;;;5053957;28;20032;-49
2021/11/06 00:34:19;;;;;;;24.27;17.70;;;10.40;99.90;;;;;;5053769;28;20021;-49
2021/11/06 00:36:44;;;;;;;25.42;17.95;;;10.50;99.90;;;;;;5053803;28;20480;-50
2021/11/06 00:39:10;;;;;;;26.20;17.98;;;10.30;99.90;;;;;;5085334;28;20037;-52
2021/11/06 00:41:36;;;;;;;26.50;18.27;;;10.30;99.90;;;;;;5085631;28;20107;-51
2021/11/06 00:44:02;;;;;;;25.10;18.70;;;10.30;99.90;;;;;;5053580;28;20029;-51
2021/11/06 00:46:28;;;;;;;28.88;19.90;;;10.30;99.90;;;;;;5053390;28;20115;-49
2021/11/06 00:48:54;;;;;;;25.00;18.15;;;10.40;99.90;;;;;;5085283;28;20124;-52
2021/11/06 00:51:20;;;;;;;23.05;16.48;;;10.30;99.90;;;;;;5068223;28;20101;-50
2021/11/06 00:53:47;;;;;;;28.05;19.30;;;10.20;99.90;;;;;;5053376;28;20029;-51
2021/11/06 00:56:13;;;;;;;23.85;19.00;;;10.30;99.90;;;;;;5053500;28;20025;-51
2021/11/06 00:58:39;;;;;;;25.23;18.38;;;10.30;99.90;;;;;;5053460;28;20079;-49
2021/11/06 01:01:05;;;;;;;24.23;18.27;;;10.20;99.90;;;;;;5068180;28;20561;-52
2021/11/06 01:03:30;;;;;;;21.65;16.38;;;10.30;99.90;;;;;;5053348;28;20048;-49
2021/11/06 01:05:56;;;;;;;22.65;18.15;;;10.30;99.90;;;;;;5051588;28;20469;-50
2021/11/06 01:08:22;;;;;;;24.58;19.15;;;10.30;99.90;;;;;;5053032;28;20521;-48
2021/11/06 01:10:48;;;;;;;25.45;19.42;;;10.20;99.90;;;;;;5068125;28;20580;-48
2021/11/06 01:13:13;;;;;;;25.42;19.60;;;10.20;99.90;;;;;;5068210;28;20037;-51
2021/11/06 01:15:39;;;;;;;23.35;17.90;;;10.30;99.90;;;;;;5053100;28;20025;-48
2021/11/06 01:18:05;;;;;;;25.15;18.95;;;10.30;99.90;;;;;;5052916;28;20122;-48
2021/11/06 01:20:31;;;;;;;28.25;20.30;;;10.30;99.90;;;;;;5053379;28;20032;-48
2021/11/06 01:22:57;;;;;;;25.48;18.98;;;10.30;99.90;;;;;;5085283;28;20044;-51
2021/11/06 01:25:23;;;;;;;22.25;17.52;;;10.30;99.90;;;;;;5052902;28;20491;-51
2021/11/06 01:27:49;;;;;;;30.63;19.95;;;10.30;99.90;;;;;;5053421;28;20115;-51
2021/11/06 01:30:16;;;;;;;27.88;19.27;;;10.40;99.90;;;;;;5053136;28;20043;-50
2021/11/06 01:32:44;;;;;;;33.70;23.67;;;10.30;99.90;;;;;;5084828;28;20366;-51
2021/11/06 01:35:12;;;;;;;30.40;21.58;;;10.30;99.90;;;;;;5053491;28;20044;-49
2021/11/06 01:37:38;;;;;;;25.05;19.35;;;10.40;99.90;;;;;;5053399;28;20481;-48
2021/11/06 01:40:07;;;;;;;24.70;18.90;;;10.40;99.90;;;;;;5052854;28;20423;-51
2021/11/06 01:42:33;;;;;;;25.00;19.23;;;10.50;99.90;;;;;;5067716;28;20048;-51
2021/11/06 01:44:59;;;;;;;30.98;22.45;;;10.60;99.90;;;;;;5051240;28;20033;-52
2021/11/06 01:47:25;;;;;;;29.92;22.13;;;10.40;99.90;;;;;;5084486;28;20040;-48
2021/11/06 01:49:50;;;;;;;22.02;17.40;;;10.40;99.90;;;;;;5051313;28;20540;-50
2021/11/06 01:52:16;;;;;;;19.73;13.98;;;10.30;99.90;;;;;;5052871;28;20021;-51
2021/11/06 01:54:42;;;;;;;21.73;15.82;;;10.10;99.90;;;;;;5050852;28;20041;-50
2021/11/06 01:57:08;;;;;;;24.88;18.88;;;10.00;99.90;;;;;;5053109;28;20530;-50
2021/11/06 01:59:34;;;;;;;27.45;22.25;;;10.00;99.90;;;;;;5084188;28;20065;-50
2021/11/06 02:02:00;;;;;;;26.10;17.88;;;10.00;99.90;;;;;;5053014;28;20444;-51
2021/11/06 02:04:26;;;;;;;21.27;12.50;;;9.80;99.90;;;;;;5052686;28;20049;-48
2021/11/06 02:06:52;;;;;;;18.83;14.05;;;9.70;99.90;;;;;;5017809;28;20051;-48
2021/11/06 02:09:18;;;;;;;28.17;17.75;;;9.70;99.90;;;;;;5052721;28;20052;-49
2021/11/06 02:11:44;;;;;;;22.52;17.77;;;9.80;99.90;;;;;;5050673;28;20436;-49
2021/11/06 02:14:10;;;;;;;20.25;14.90;;;9.60;99.90;;;;;;5085975;28;20047;-50
2021/11/06 02:16:36;;;;;;;19.65;13.50;;;9.50;99.90;;;;;;5055846;28;20129;-52
2021/11/06 02:19:03;;;;;;;21.95;15.38;;;9.50;99.90;;;;;;5056295;28;20545;-50
2021/11/06 02:21:28;;;;;;;21.50;15.93;;;9.40;99.90;;;;;;5056109;28;20037;-49
2021/11/06 02:23:54;;;;;;;19.70;15.57;;;9.40;99.90;;;;;;5071309;28;20044;-50
2021/11/06 02:26:21;;;;;;;23.42;16.08;;;9.50;99.90;;;;;;5058390;28;20115;-49
2021/11/06 02:28:51;;;;;;;21.88;15.32;;;9.50;99.90;;;;;;5088356;28;20056;-52
2021/11/06 02:31:17;;;;;;;19.02;12.68;;;9.60;99.90;;;;;;5091452;28;20036;-49
2021/11/06 02:33:43;;;;;;;21.55;14.35;;;9.60;99.90;;;;;;5082827;28;20081;-51
2021/11/06 02:36:09;;;;;;;22.27;15.25;;;9.70;99.90;;;;;;5086904;28;20032;-51
2021/11/06 02:38:35;;;;;;;21.42;15.52;;;9.80;99.90;;;;;;5084569;28;20044;-52
2021/11/06 02:41:01;;;;;;;21.20;16.02;;;9.90;99.90;;;;;;5081977;28;20024;-49
2021/11/06 02:43:27;;;;;;;20.63;15.52;;;10.00;99.90;;;;;;5084986;28;20070;-49
2021/11/06 02:45:53;;;;;;;20.70;13.80;;;10.00;99.90;;;;;;5088458;28;20460;-49
2021/11/06 02:48:19;;;;;;;21.38;15.45;;;9.90;99.90;;;;;;5070355;28;20147;-51
2021/11/06 02:50:45;;;;;;;19.73;14.07;;;9.90;99.90;;;;;;5087702;28;20429;-51
2021/11/06 02:53:10;;;;;;;21.80;14.98;;;10.00;99.90;;;;;;5077358;28;20361;-48
2021/11/06 02:55:36;;;;;;;20.20;14.77;;;10.00;99.90;;;;;;5084685;28;20127;-50
2021/11/06 02:58:03;;;;;;;22.23;15.18;;;10.00;99.90;;;;;;5067620;28;20041;-49
2021/11/06 03:00:32;;;;;;;21.98;14.63;;;10.00;99.90;;;;;;5066500;28;20431;-50
2021/11/06 03:02:58;;;;;;;19.55;13.77;;;10.10;99.90;;;;;;5058278;28;20477;-49
2021/11/06 03:05:24;;;;;;;20.83;14.65;;;10.10;99.90;;;;;;5061048;28;20024;-52
2021/11/06 03:07:50;;;;;;;18.25;13.48;;;10.10;99.90;;;;;;5054348;28;20053;-48
2021/11/06 03:10:17;;;;;;;17.73;12.45;;;10.10;99.90;;;;;;5062520;28;20059;-50
2021/11/06 03:12:44;;;;;;;17.75;12.48;;;10.20;99.90;;;;;;5082339;28;20028;-51
2021/11/06 03:15:10;;;;;;;15.82;11.40;;;10.10;99.90;;;;;;5060334;28;20036;-50
2021/11/06 03:17:36;;;;;;;14.73;10.18;;;10.10;99.90;;;;;;5079638;28;20062;-50
2021/11/06 03:20:04;;;;;;;16.98;11.45;;;10.20;99.90;;;;;;5032577;28;20134;-51
2021/11/06 03:22:30;;;;;;;16.70;11.40;;;10.20;99.90;;;;;;5075195;28;20051;-50
2021/11/06 03:24:56;;;;;;;17.77;12.93;;;10.30;99.90;;;;;;5073447;28;20029;-48
2021/11/06 03:27:22;;;;;;;15.98;11.05;;;10.30;99.90;;;;;;5079910;28;20532;-51
2021/11/06 03:29:48;;;;;;;15.70;11.40;;;10.30;99.90;;;;;;5082465;28;20016;-49
2021/11/06 03:32:13;;;;;;;17.00;11.13;;;10.40;99.90;;;;;;5073479;28;20028;-52
2021/11/06 03:34:39;;;;;;;22.35;12.23;;;10.40;99.90;;;;;;5062157;28;20040;-51
2021/11/06 03:37:06;;;;;;;15.93;12.15;;;10.20;99.90;;;;;;5082403;28;20021;-51
2021/11/06 03:39:32;;;;;;;14.88;12.18;;;10.20;99.90;;;;;;5080863;28;20039;-48
2021/11/06 03:41:58;;;;;;;16.05;12.38;;;10.30;99.90;;;;;;5077188;28;20456;-51
2021/11/06 03:44:24;;;;;;;17.73;13.15;;;10.20;99.90;;;;;;5003576;28;20032;-48
2021/11/06 03:46:50;;;;;;;16.42;12.75;;;10.30;99.90;;;;;;5107674;27;20053;-49
2021/11/06 03:49:16;;;;;;;18.27;13.63;;;10.30;99.90;;;;;;5097596;28;20039;-49
2021/11/06 03:51:42;;;;;;;14.85;11.90;;;10.40;99.90;;;;;;5076215;28;20024;-49
2021/11/06 03:54:08;;;;;;;17.02;12.52;;;10.40;99.90;;;;;;5073195;28;20025;-50
2021/11/06 03:56:34;;;;;;;15.75;12.10;;;10.50;99.90;;;;;;5074740;28;20053;-50
2021/11/06 03:59:00;;;;;;;15.32;11.40;;;10.50;99.90;;;;;;5070896;28;20529;-52
2021/11/06 04:01:26;;;;;;;15.90;12.25;;;10.40;99.90;;;;;;5068812;28;20028;-49
2021/11/06 04:03:52;;;;;;;16.58;11.43;;;10.30;99.90;;;;;;5053002;28;20028;-49
2021/11/06 04:06:18;;;;;;;13.73;10.90;;;10.30;99.90;;;;;;5082781;28;20498;-50
2021/11/06 04:08:44;;;;;;;13.85;11.00;;;10.30;99.90;;;;;;5074627;28;20117;-52
2021/11/06 04:11:10;;;;;;;16.13;10.70;;;10.30;99.90;;;;;;5069140;28;20028;-52
2021/11/06 04:13:36;;;;;;;15.20;10.57;;;10.30;99.90;;;;;;5040447;28;20032;-50
2021/11/06 04:16:02;;;;;;;13.85;10.07;;;10.40;99.90;;;;;;5079251;28;20025;-50
2021/11/06 04:18:28;;;;;;;14.55;10.07;;;10.40;99.90;;;;;;5079480;28;20028;-52
2021/11/06 04:20:54;;;;;;;14.20;11.02;;;10.20;99.90;;;;;;5084004;28;20048;-50
2021/11/06 04:23:20;;;;;;;14.77;11.25;;;10.20;99.90;;;;;;5081080;28;20024;-49
2021/11/06 04:25:46;;;;;;;19.17;12.13;;;10.10;99.90;;;;;;5084680;28;20032;-51
2021/11/06 04:28:13;;;;;;;15.00;11.07;;;10.20;99.90;;;;;;5058521;28;20051;-49
2021/11/06 04:30:39;;;;;;;13.75;10.75;;;10.10;99.90;;;;;;5057881;28;20044;-50
2021/11/06 04:33:05;;;;;;;13.57;11.20;;;10.20;99.90;;;;;;5054400;28;20464;-51
2021/11/06 04:35:31;;;;;;;12.95;11.23;;;10.10;99.90;;;;;;5021351;28;20383;-51
2021/11/06 04:37:56;;;;;;;14.73;10.88;;;10.10;99.90;;;;;;5073822;28;20036;-53
2021/11/06 04:40:22;;;;;;;17.60;11.10;;;9.90;99.90;;;;;;5083312;28;20028;-50
2021/11/06 04:42:48;;;;;;;14.15;11.25;;;9.90;99.90;;;;;;5072488;28;20021;-50
2021/11/06 04:45:14;;;;;;;14.32;11.32;;;9.80;99.90;;;;;;5079280;28;20025;-51
2021/11/06 04:47:40;;;;;;;14.75;10.70;;;9.90;99.90;;;;;;5087922;28;20495;-49
2021/11/06 04:50:09;;;;;;;14.32;9.88;;;10.00;99.90;;;;;;5071948;28;20024;-50
2021/11/06 04:52:35;;;;;;;12.68;9.82;;;10.00;99.90;;;;;;5077984;28;20076;-49
2021/11/06 04:55:04;;;;;;;13.20;10.13;;;10.00;99.90;;;;;;5071569;28;20416;-52
2021/11/06 04:57:30;;;;;;;13.25;10.82;;;9.80;99.90;;;;;;5061730;28;20032;-49
2021/11/06 04:59:55;;;;;;;14.20;10.45;;;9.80;99.90;;;;;;5067191;28;20039;-52
2021/11/06 05:02:21;;;;;;;13.95;10.43;;;9.80;99.90;;;;;;5020534;28;20028;-50
2021/11/06 05:04:48;;;;;;;14.60;12.25;;;9.80;99.90;;;;;;5073512;28;20476;-50
2021/11/06 05:07:15;;;;;;;16.48;11.82;;;9.90;99.90;;;;;;5075713;28;20119;-50
2021/11/06 05:09:43;;;;;;;13.55;11.18;;;10.00;99.90;;;;;;5072944;28;20041;-51
2021/11/06 05:12:09;;;;;;;15.07;11.20;;;10.00;99.90;;;;;;5075134;28;20039;-51
2021/11/06 05:14:35;;;;;;;14.57;11.35;;;10.10;99.90;;;;;;5033301;28;20040;-49
2021/11/06 05:17:02;;;;;;;14.55;10.43;;;10.00;99.90;;;;;;5077899;28;20052;-50
2021/11/06 05:19:27;;;;;;;15.77;12.23;;;9.90;99.90;;;;;;5026474;28;20451;-49
2021/11/06 05:21:53;;;;;;;14.80;11.52;;;9.90;99.90;;;;;;5079113;28;20028;-50
2021/11/06 05:24:19;;;;;;;17.15;11.25;;;10.00;99.90;;;;;;5066890;28;20103;-52
2021/11/06 05:26:45;;;;;;;15.25;12.02;;;9.80;99.90;;;;;;5075052;28;20028;-52
2021/11/06 05:29:11;;;;;;;14.98;10.93;;;9.80;99.90;;;;;;5067107;28;20064;-52
2021/11/06 05:31:38;;;;;;;16.67;11.52;;;10.00;99.90;;;;;;5051764;28;20051;-50
2021/11/06 05:34:04;;;;;;;14.98;10.68;;;10.20;99.90;;;;;;5072212;28;20040;-53
2021/11/06 05:36:30;;;;;;;16.40;12.65;;;10.30;99.90;;;;;;5064982;28;20045;-51
2021/11/06 05:38:56;;;;;;;14.13;9.88;;;10.30;99.90;;;;;;5070147;28;20453;-51
2021/11/06 05:41:22;;;;;;;16.23;11.63;;;10.40;99.90;;;;;;5069122;28;20636;-50
2021/11/06 05:43:48;;;;;;;13.40;10.45;;;10.40;99.90;;;;;;5064852;28;20035;-51
2021/11/06 05:46:14;;;;;;;14.98;11.50;;;10.40;99.90;;;;;;5070849;28;20032;-51
2021/11/06 05:48:40;;;;;;;14.65;11.02;;;10.50;99.90;;;;;;5084082;28;20087;-51
2021/11/06 05:51:06;;;;;;;14.57;11.85;;;10.40;99.90;;;;;;5054167;28;20035;-52
2021/11/06 05:53:31;;;;;;;15.95;12.77;;;10.40;99.90;;;;;;5041604;28;20074;-51
2021/11/06 05:55:58;;;;;;;17.60;12.45;;;10.40;99.90;;;;;;5079021;28;20048;-51
2021/11/06 05:58:23;;;;;;;15.38;11.90;;;10.40;99.90;;;;;;5074081;28;20475;-50
2021/11/06 06:00:49;;;;;;;15.60;11.75;;;10.30;99.90;;;;;;5075499;28;20024;-51
2021/11/06 06:03:15;;;;;;;14.45;10.73;;;10.40;99.90;;;;;;5081511;28;20033;-49
2021/11/06 06:05:41;;;;;;;15.00;11.82;;;10.30;99.90;;;;;;5088801;28;20039;-53
2021/11/06 06:08:07;;;;;;;15.23;12.23;;;10.30;99.90;;;;;;5055360;28;20047;-50
2021/11/06 06:10:33;;;;;;;17.20;13.15;;;10.30;99.90;;;;;;5054981;28;20036;-49
2021/11/06 06:12:58;;;;;;;17.55;13.00;;;10.30;99.90;;;;;;5074834;28;20032;-53
2021/11/06 06:15:24;;;;;;;15.82;12.30;;;10.30;99.90;;;;;;5056598;28;20082;-51
2021/11/06 06:17:51;;;;;;;16.60;13.07;;;10.30;99.90;;;;;;5079781;28;20045;-52
2021/11/06 06:20:18;;;;;;;19.30;15.00;;;10.30;99.90;;;;;;5059506;28;20036;-54
2021/11/06 06:22:45;;;;;;;43.22;15.57;;;10.40;99.90;;;;;;5060370;28;20382;-52
2021/11/06 06:25:12;;;;;;;34.65;17.15;;;10.40;99.90;;;;;;5056387;28;20494;-50
2021/11/06 06:27:39;;;;;;;33.00;19.80;;;10.40;99.90;;;;;;5060470;28;20025;-53
2021/11/06 06:30:11;;;;;;;22.70;15.60;;;10.30;99.90;;;;;;5069505;28;20037;-53
2021/11/06 06:32:38;;;;;;;24.92;18.92;;;10.30;99.90;;;;;;5071138;28;20068;-51
2021/11/06 06:35:05;;;;;;;18.35;14.15;;;10.40;99.90;;;;;;5062408;28;20036;-52
2021/11/06 06:37:31;;;;;;;16.75;14.02;;;10.30;99.90;;;;;;5055767;28;20487;-52
2021/11/06 06:39:57;;;;;;;19.52;15.20;;;10.20;99.90;;;;;;5060558;28;20017;-51
2021/11/06 06:42:23;;;;;;;21.00;14.85;;;10.40;99.90;;;;;;5058098;28;20045;-51
2021/11/06 06:44:50;;;;;;;16.83;12.90;;;10.30;99.90;;;;;;5062176;28;20032;-52
2021/11/06 06:47:16;;;;;;;15.88;12.57;;;10.40;99.90;;;;;;5071764;28;20053;-51
2021/11/06 06:49:42;;;;;;;16.50;13.20;;;10.50;99.90;;;;;;5056165;28;20077;-50
2021/11/06 06:52:08;;;;;;;17.08;13.75;;;10.50;99.90;;;;;;5061471;28;20017;-55
2021/11/06 06:54:34;;;;;;;16.25;12.30;;;10.50;99.90;;;;;;5060486;28;20024;-50
2021/11/06 06:57:00;;;;;;;15.27;13.13;;;10.50;99.90;;;;;;5057426;28;20045;-49
2021/11/06 06:59:26;;;;;;;19.77;13.60;;;10.40;99.90;;;;;;5051326;28;20044;-50
2021/11/06 07:01:51;;;;;;;19.02;14.90;;;10.40;99.90;;;;;;5049095;28;20032;-51
2021/11/06 07:04:17;;;;;;;17.35;12.63;;;10.40;99.90;;;;;;5047059;28;20444;-50
2021/11/06 07:06:45;;;;;;;19.63;15.13;;;10.40;99.90;;;;;;5046685;28;20395;-55
2021/11/06 07:09:10;;;;;;;17.55;14.60;;;10.40;99.90;;;;;;5051335;28;20033;-53
2021/11/06 07:11:36;;;;;;;24.40;16.27;;;10.40;99.90;;;;;;5016114;28;20346;-46
2021/11/06 07:14:03;;;;;;;18.05;13.82;;;10.40;99.90;;;;;;5033309;28;20033;-51
2021/11/06 07:16:29;;;;;;;20.75;16.13;;;10.40;99.90;;;;;;5058670;28;20037;-56
2021/11/06 07:18:54;;;;;;;22.48;18.15;;;10.30;99.90;;;;;;5092392;28;20033;-52
2021/11/06 07:21:20;;;;;;;16.10;13.95;;;10.30;99.90;;;;;;5076767;28;20502;-50
2021/11/06 07:23:46;;;;;;;18.77;14.82;;;10.20;99.90;;;;;;5069490;28;20033;-47
2021/11/06 07:26:12;;;;;;;19.95;15.10;;;10.30;99.90;;;;;;5106769;27;20388;-54
2021/11/06 07:28:38;;;;;;;22.20;16.55;;;10.30;99.90;;;;;;5078554;28;20097;-56
2021/11/06 07:31:04;;;;;;;26.23;20.80;;;10.30;99.90;;;;;;5081259;28;20368;-50
2021/11/06 07:33:30;;;;;;;19.75;16.20;;;10.30;99.90;;;;;;5111375;27;20029;-51
2021/11/06 07:35:55;;;;;;;20.67;17.05;;;10.30;99.90;;;;;;5056835;28;20025;-59
2021/11/06 07:38:21;;;;;;;25.20;19.65;;;10.50;99.90;;;;;;5054533;28;20761;-56
2021/11/06 07:40:47;;;;;;;31.33;23.63;;;10.60;99.90;;;;;;5069309;28;20037;-54
2021/11/06 07:43:13;;;;;;;20.50;17.00;;;10.70;99.90;;;;;;5054773;28;20349;-58
2021/11/06 07:45:40;;;;;;;24.70;19.55;;;10.70;99.90;;;;;;5055033;28;20488;-54
2021/11/06 07:48:06;;;;;;;23.40;18.58;;;10.80;99.90;;;;;;5054649;28;20538;-48
2021/11/06 07:50:32;;;;;;;20.60;16.45;;;10.90;99.90;;;;;;5054738;28;20033;-54
2021/11/06 07:52:58;;;;;;;24.60;20.88;;;10.80;99.90;;;;;;5052691;28;20037;-51
2021/11/06 07:55:24;;;;;;;17.35;14.05;;;10.80;99.90;;;;;;5056408;28;20036;-50
2021/11/06 07:57:50;;;;;;;17.45;13.85;;;10.70;99.90;;;;;;5029356;28;20047;-50
2021/11/06 08:00:18;;;;;;;17.40;13.70;;;10.50;99.90;;;;;;5054412;28;20036;-52
2021/11/06 08:02:45;;;;;;;18.75;14.25;;;10.40;99.90;;;;;;5073589;28;20024;-50
2021/11/06 08:05:12;;;;;;;16.98;12.52;;;10.60;99.90;;;;;;5070427;28;20395;-49
2021/11/06 08:07:39;;;;;;;16.40;12.88;;;10.50;99.90;;;;;;5071852;28;20032;-50
2021/11/06 08:10:06;;;;;;;18.40;12.57;;;10.40;99.90;;;;;;5073343;28;20024;-49
2021/11/06 08:12:33;;;;;;;17.70;15.43;;;10.30;99.90;;;;;;5054380;28;20503;-51
2021/11/06 08:14:59;;;;;;;33.30;20.30;;;10.40;99.90;;;;;;5043191;28;20044;-50
2021/11/06 08:17:25;;;;;;;27.45;16.25;;;10.40;99.90;;;;;;5077126;28;20043;-50
2021/11/06 08:19:51;;;;;;;151.85;118.55;;;10.30;99.90;;;;;;5075478;28;20378;-51
2021/11/06 08:22:17;;;;;;;25.77;19.52;;;10.30;99.90;;;;;;5075480;28;20036;-53
2021/11/06 08:24:43;;;;;;;22.80;18.60;;;10.50;99.90;;;;;;5074182;28;20028;-48
2021/11/06 08:27:09;;;;;;;20.15;17.38;;;10.70;99.90;;;;;;5088709;28;20639;-53
2021/11/06 08:29:35;;;;;;;19.73;16.75;;;10.90;99.90;;;;;;5071931;28;20048;-51
2021/11/06 08:32:01;;;;;;;20.42;17.02;;;11.00;99.90;;;;;;5074018;28;20448;-51
2021/11/06 08:34:28;;;;;;;22.45;17.38;;;11.00;99.90;;;;;;5088838;28;20040;-54
2021/11/06 08:36:56;;;;;;;29.35;22.30;;;11.00;99.90;;;;;;5073788;28;20531;-54
2021/11/06 08:39:23;;;;;;;22.70;18.45;;;11.10;99.90;;;;;;5065792;28;20067;-51
2021/11/06 08:41:50;;;;;;;20.55;15.63;;;11.10;99.90;;;;;;5069853;28;20087;-48
2021/11/06 08:44:18;;;;;;;22.20;17.50;;;11.10;99.90;;;;;;5072700;28;20517;-56
2021/11/06 08:46:45;;;;;;;28.42;20.65;;;10.90;99.90;;;;;;5073234;28;20468;-55
2021/11/06 08:49:13;;;;;;;19.42;16.27;;;11.00;99.90;;;;;;5071718;28;20090;-56
2021/11/06 08:51:42;;;;;;;25.27;19.40;;;10.90;99.90;;;;;;5073872;28;20028;-55
2021/11/06 08:54:08;;;;;;;18.27;14.95;;;11.10;99.90;;;;;;5055136;28;20048;-56
2021/11/06 08:56:34;;;;;;;19.80;15.35;;;11.00;99.90;;;;;;5073768;28;20021;-53
2021/11/06 08:59:00;;;;;;;18.38;15.95;;;11.10;99.90;;;;;;5055031;28;20041;-51
2021/11/06 09:01:26;;;;;;;18.42;14.82;;;11.10;99.90;;;;;;5071700;28;20110;-54
2021/11/06 09:03:52;;;;;;;20.38;16.52;;;11.20;99.90;;;;;;5073904;28;20056;-54
2021/11/06 09:06:19;;;;;;;22.98;17.70;;;11.10;99.90;;;;;;5073555;28;20098;-54
2021/11/06 09:08:46;;;;;;;17.65;15.20;;;11.20;99.90;;;;;;5073586;28;20039;-53
2021/11/06 09:11:12;;;;;;;19.92;15.95;;;11.30;99.90;;;;;;5071901;28;20032;-57
2021/11/06 09:13:40;;;;;;;15.02;13.05;;;11.40;99.90;;;;;;5068420;28;20204;-56
2021/11/06 09:16:09;;;;;;;16.67;14.05;;;11.50;99.90;;;;;;5072883;28;20461;-49
2021/11/06 09:18:36;;;;;;;17.15;13.50;;;11.60;99.90;;;;;;5072746;28;20019;-52
2021/11/06 09:21:02;;;;;;;17.85;13.95;;;11.60;99.90;;;;;;5072356;28;20058;-53
2021/11/06 09:23:30;;;;;;;15.45;13.40;;;11.60;99.90;;;;;;5046444;28;20041;-56
2021/11/06 09:25:57;;;;;;;16.08;13.48;;;11.60;99.90;;;;;;5074911;28;20037;-56
2021/11/06 09:28:26;;;;;;;15.13;13.27;;;11.60;99.90;;;;;;5077198;28;20490;-51
2021/11/06 09:30:54;;;;;;;15.90;13.02;;;11.60;99.90;;;;;;5077667;28;20439;-50
2021/11/06 09:33:20;;;;;;;16.10;13.23;;;11.60;99.90;;;;;;5077337;28;20028;-55
2021/11/06 09:35:46;;;;;;;14.95;13.25;;;11.60;99.90;;;;;;5041866;28;20040;-55
2021/11/06 09:38:11;;;;;;;17.13;13.10;;;11.50;99.90;;;;;;5092353;28;20033;-50
2021/11/06 09:40:37;;;;;;;24.40;19.35;;;11.50;99.90;;;;;;5077229;28;20055;-56
2021/11/06 09:43:03;;;;;;;24.27;20.00;;;11.70;99.90;;;;;;5076553;28;20059;-52
2021/11/06 09:45:29;;;;;;;20.55;15.80;;;11.70;99.90;;;;;;5096236;27;20044;-52
2021/11/06 09:47:55;;;;;;;17.42;14.88;;;11.60;99.90;;;;;;5053701;28;20089;-52
2021/11/06 09:50:22;;;;;;;19.30;15.95;;;11.70;99.90;;;;;;5074614;28;20071;-54
2021/11/06 09:52:51;;;;;;;17.77;13.85;;;11.50;99.90;;;;;;5073355;28;20124;-53
2021/11/06 09:55:19;;;;;;;17.35;14.93;;;11.40;99.90;;;;;;5075748;28;20028;-52
2021/11/06 09:57:45;;;;;;;15.32;13.73;;;11.30;99.90;;;;;;5075781;28;20365;-58
2021/11/06 10:00:13;;;;;;;20.75;17.50;;;11.40;99.90;;;;;;5076503;28;20028;-53
2021/11/06 10:02:40;;;;;;;23.60;20.08;;;11.40;99.90;;;;;;5072539;28;20028;-52
2021/11/06 10:05:06;;;;;;;34.75;25.77;;;11.50;99.90;;;;;;5075184;28;20043;-47
2021/11/06 10:07:32;;;;;;;16.95;13.77;;;11.40;99.90;;;;;;5056445;28;20059;-53
2021/11/06 10:10:16;;;;;;;19.13;15.77;;;11.30;99.90;;;;;;5075603;28;20020;-52
2021/11/06 10:12:52;;;;;;;17.70;14.38;;;11.20;99.90;;;;;;5052390;28;20075;-51
2021/11/06 10:15:23;;;;;;;21.85;16.95;;;11.40;99.90;;;;;;5058642;28;20086;-52
2021/11/06 10:17:49;;;;;;;45.33;29.40;;;11.50;99.90;;;;;;5075759;28;20127;-50
2021/11/06 10:20:21;;;;;;;68.72;58.25;;;11.60;99.90;;;;;;5076628;28;20024;-52
2021/11/06 10:22:47;;;;;;;17.92;14.55;;;11.70;99.90;;;;;;5074265;28;20044;-52
2021/11/06 10:25:14;;;;;;;15.63;13.13;;;11.70;99.90;;;;;;5057609;28;20036;-49
2021/11/06 10:27:42;;;;;;;19.48;16.45;;;11.60;99.90;;;;;;5072878;28;20250;-56
2021/11/06 10:30:15;;;;;;;21.10;16.60;;;11.50;99.90;;;;;;5075607;28;20025;-55
2021/11/06 10:32:44;;;;;;;19.70;14.65;;;11.40;99.90;;;;;;5074884;28;20095;-56
2021/11/06 10:35:14;;;;;;;19.70;14.60;;;11.50;99.90;;;;;;5073916;28;20079;-58
2021/11/06 10:37:41;;;;;;;36.28;26.35;;;11.60;99.90;;;;;;5072031;28;20029;-53
2021/11/06 10:40:09;;;;;;;33.67;24.00;;;11.70;99.90;;;;;;5075682;28;20158;-56
2021/11/06 10:42:55;;;;;;;19.13;16.70;;;11.80;99.90;;;;;;5039832;28;20045;-53
2021/11/06 10:45:24;;;;;;;27.83;23.10;;;11.80;99.90;;;;;;5073792;28;20039;-55
2021/11/06 10:47:56;;;;;;;32.60;23.30;;;11.80;99.90;;;;;;5074715;28;20522;-55
2021/11/06 10:50:45;;;;;;;18.83;15.85;;;11.80;99.90;;;;;;5075599;28;20071;-48
2021/11/06 10:53:17;;;;;;;19.10;16.98;;;11.80;99.90;;;;;;5056818;28;20032;-51
2021/11/06 10:55:45;;;;;;;19.52;17.05;;;11.80;99.90;;;;;;5075789;28;20060;-51
2021/11/06 10:58:24;;;;;;;18.80;15.88;;;11.70;99.90;;;;;;5075606;28;20031;-48
2021/11/06 11:00:56;;;;;;;27.92;21.75;;;11.50;99.90;;;;;;5075610;28;20483;-50
2021/11/06 11:03:39;;;;;;;18.77;14.25;;;11.40;99.90;;;;;;5075338;28;20032;-51
2021/11/06 11:06:13;;;;;;;16.23;14.38;;;11.40;99.90;;;;;;5075436;28;20115;-50
2021/11/06 11:08:54;;;;;;;29.88;24.20;;;11.40;99.90;;;;;;5073431;28;20454;-56
2021/11/06 11:11:22;;;;;;;18.05;15.80;;;11.40;99.90;;;;;;5075530;28;20032;-55
2021/11/06 11:13:53;;;;;;;17.52;14.85;;;11.30;99.90;;;;;;5075361;28;20024;-53
2021/11/06 11:16:20;;;;;;;19.90;14.65;;;11.50;99.90;;;;;;5074978;28;20064;-52
2021/11/06 11:18:48;;;;;;;17.45;15.25;;;11.70;99.90;;;;;;5075418;28;20538;-47
2021/11/06 11:21:17;;;;;;;18.65;14.90;;;11.80;99.90;;;;;;5056405;28;20123;-54
2021/11/06 11:23:51;;;;;;;17.83;14.77;;;11.80;99.90;;;;;;5075252;28;20093;-52
2021/11/06 11:26:22;;;;;;;60.22;44.75;;;11.70;99.90;;;;;;5069873;28;20044;-53
2021/11/06 11:28:49;;;;;;;35.53;26.13;;;11.70;99.90;;;;;;5072399;28;20049;-53
2021/11/06 11:31:16;;;;;;;28.48;24.63;;;11.80;99.90;;;;;;5073026;28;20032;-52
2021/11/06 11:33:44;;;;;;;37.22;33.58;;;11.70;99.90;;;;;;5073926;28;20024;-52
2021/11/06 11:36:12;;;;;;;23.10;18.65;;;11.40;99.90;;;;;;5072396;28;20029;-56
2021/11/06 11:38:39;;;;;;;19.38;16.77;;;11.50;99.90;;;;;;5074138;28;20021;-53
2021/11/06 11:41:11;;;;;;;19.70;14.65;;;11.40;99.90;;;;;;5071062;28;20028;-49
2021/11/06 11:44:16;;;;;;;20.27;14.85;;;11.20;99.90;;;;;;5074833;28;20075;-48
2021/11/06 11:46:50;;;;;;;67.85;45.67;;;11.10;99.90;;;;;;5051307;28;20072;-53
2021/11/06 11:49:18;;;;;;;24.13;19.23;;;11.10;99.90;;;;;;5052559;28;20052;-45
2021/11/06 11:51:44;;;;;;;18.30;12.75;;;11.00;99.90;;;;;;5052409;28;20059;-48
2021/11/06 11:54:12;;;;;;;14.23;10.60;;;10.80;99.90;;;;;;5052136;28;20044;-51
2021/11/06 11:56:40;;;;;;;11.57;9.98;;;10.50;99.90;;;;;;5052349;28;20146;-55
2021/11/06 11:59:07;;;;;;;11.95;8.68;;;10.40;99.90;;;;;;5040737;28;20038;-48
2021/11/06 12:01:34;;;;;;;11.32;9.00;;;10.40;99.90;;;;;;5031321;28;20037;-51
2021/11/06 12:04:15;;;;;;;13.40;11.02;;;10.50;99.90;;;;;;4998400;28;20141;-50
2021/11/06 12:06:43;;;;;;;13.13;11.70;;;10.70;99.90;;;;;;5028978;28;20083;-55
2021/11/06 12:09:11;;;;;;;13.10;11.00;;;10.80;99.90;;;;;;5031195;28;20710;-51
2021/11/06 12:11:56;;;;;;;14.88;11.07;;;10.80;99.90;;;;;;5030915;28;20120;-47
2021/11/06 12:14:29;;;;;;;13.55;11.02;;;10.90;99.90;;;;;;5014522;28;20497;-50
2021/11/06 12:16:59;;;;;;;194.02;174.90;;;10.90;99.90;;;;;;5028958;28;20049;-53
2021/11/06 12:19:46;;;;;;;14.75;11.45;;;10.90;99.90;;;;;;5020527;28;20040;-52
2021/11/06 12:22:16;;;;;;;49.65;32.75;;;11.10;99.90;;;;;;5035913;28;20511;-51
2021/11/06 12:24:44;;;;;;;30.10;22.63;;;11.00;99.90;;;;;;5074183;28;20641;-47
2021/11/06 12:27:15;;;;;;;41.65;37.33;;;11.10;99.90;;;;;;5055146;28;20451;-50